Time;durP1;ratioP1;P1;durP2;ratioP2;P2;SDS_P1;SDS_P2;PMS_P1;PMS_P2;Temp;Humidity;BMP_temperature;BMP_pressure;BME280_temperature;BME280_humidity;BME280_pressure;Samples;Min_cycle;Max_cycle;Signal;HPM_P1;HPM_P2
2022/03/12 00:02:17;;;;;;;17.48;12.10;;;;;;;;;;5063306;28;20386;-83
2022/03/12 00:04:45;;;;;;;20.97;12.33;;;;;;;;;;5050851;28;20454;-82
2022/03/12 00:07:12;;;;;;;37.47;13.82;;;;;;;;;;5061188;28;20393;-82
2022/03/12 00:09:38;;;;;;;19.27;11.88;;;;;;;;;;5049495;28;20407;-82
2022/03/12 00:12:05;;;;;;;19.48;12.88;;;;;;;;;;5050382;28;21057;-81
2022/03/12 00:14:33;;;;;;;19.40;12.75;;;;;;;;;;5049340;28;20804;-82
2022/03/12 00:16:59;;;;;;;16.73;12.20;;;;;;;;;;5050448;28;20360;-82
2022/03/12 00:19:25;;;;;;;18.90;12.63;;;;;;;;;;5050611;28;20452;-82
2022/03/12 00:21:51;;;;;;;19.70;12.18;;;;;;;;;;5049570;28;20460;-82
2022/03/12 00:24:18;;;;;;;16.45;11.60;;;;;;;;;;5059088;28;20449;-82
2022/03/12 00:26:46;;;;;;;19.00;12.40;;;;;;;;;;5070104;28;20864;-81
2022/03/12 00:29:16;;;;;;;18.85;13.75;;;;;;;;;;5068831;28;20489;-82
2022/03/12 00:31:46;;;;;;;20.63;12.75;;;;;;;;;;5070668;28;20384;-81
2022/03/12 00:34:13;;;;;;;16.10;11.63;;;;;;;;;;5070155;28;20402;-82
2022/03/12 00:36:39;;;;;;;17.13;12.57;;;;;;;;;;5069954;28;20859;-81
2022/03/12 00:39:08;;;;;;;20.27;12.95;;;;;;;;;;5068522;28;20389;-81
2022/03/12 00:41:34;;;;;;;17.10;12.68;;;;;;;;;;5068895;28;20425;-81
2022/03/12 00:44:00;;;;;;;17.98;12.35;;;;;;;;;;5068754;28;20914;-82
2022/03/12 00:46:27;;;;;;;19.73;13.23;;;;;;;;;;5069994;28;20481;-81
2022/03/12 00:48:53;;;;;;;20.85;13.27;;;;;;;;;;5070645;28;20366;-82
2022/03/12 00:51:19;;;;;;;21.10;13.88;;;;;;;;;;5069046;28;20381;-82
2022/03/12 00:53:45;;;;;;;19.27;13.10;;;;;;;;;;5070099;28;20720;-82
2022/03/12 00:56:11;;;;;;;20.27;13.60;;;;;;;;;;5069525;28;20740;-81
2022/03/12 00:58:37;;;;;;;20.03;12.90;;;;;;;;;;5069511;28;20374;-82
2022/03/12 01:01:04;;;;;;;18.70;13.15;;;;;;;;;;5056955;28;20388;-82
2022/03/12 01:03:30;;;;;;;17.92;13.10;;;;;;;;;;5052714;28;20376;-82
2022/03/12 01:05:58;;;;;;;17.90;12.75;;;;;;;;;;5052100;28;20920;-82
2022/03/12 01:08:24;;;;;;;20.25;12.73;;;;;;;;;;5048108;28;20380;-82
2022/03/12 01:10:52;;;;;;;22.30;14.00;;;;;;;;;;5049793;28;20461;-81
2022/03/12 01:13:20;;;;;;;19.52;13.20;;;;;;;;;;5049584;28;20418;-82
2022/03/12 01:15:47;;;;;;;20.58;13.95;;;;;;;;;;5047969;28;20816;-81
2022/03/12 01:18:14;;;;;;;20.05;13.30;;;;;;;;;;5058341;28;20883;-83
2022/03/12 01:20:40;;;;;;;24.23;14.10;;;;;;;;;;5065281;28;20372;-82
2022/03/12 01:23:07;;;;;;;20.90;14.27;;;;;;;;;;5067424;28;21288;-83
2022/03/12 01:25:33;;;;;;;22.70;13.85;;;;;;;;;;5070167;28;20405;-81
2022/03/12 01:27:59;;;;;;;19.40;13.63;;;;;;;;;;5056386;28;20441;-81
2022/03/12 01:30:29;;;;;;;18.30;13.35;;;;;;;;;;5052722;28;20894;-82
2022/03/12 01:32:58;;;;;;;20.95;14.05;;;;;;;;;;5053458;28;20421;-82
2022/03/12 01:35:24;;;;;;;21.17;14.20;;;;;;;;;;5052308;28;20383;-81
2022/03/12 01:37:51;;;;;;;19.85;12.82;;;;;;;;;;5055976;28;20367;-82
2022/03/12 01:40:17;;;;;;;18.87;12.70;;;;;;;;;;5072166;28;20485;-80
2022/03/12 01:42:43;;;;;;;21.00;13.70;;;;;;;;;;5074019;28;20390;-82
2022/03/12 01:45:10;;;;;;;21.10;13.20;;;;;;;;;;5072570;28;20416;-82
2022/03/12 01:47:37;;;;;;;20.48;13.77;;;;;;;;;;5073373;28;20395;-82
2022/03/12 01:50:05;;;;;;;18.63;13.10;;;;;;;;;;5073927;28;20462;-84
2022/03/12 01:52:31;;;;;;;20.53;13.83;;;;;;;;;;5072371;28;20953;-83
2022/03/12 01:54:57;;;;;;;19.92;13.55;;;;;;;;;;5072414;28;20382;-82
2022/03/12 01:57:23;;;;;;;18.10;12.68;;;;;;;;;;5074279;28;20370;-82
2022/03/12 01:59:51;;;;;;;21.67;14.27;;;;;;;;;;5072319;28;20428;-83
2022/03/12 02:02:17;;;;;;;21.48;13.80;;;;;;;;;;5071993;28;20406;-82
2022/03/12 02:04:52;;;;;;;20.05;13.90;;;;;;;;;;5063876;28;20386;-81
2022/03/12 02:07:18;;;;;;;20.90;14.15;;;;;;;;;;5067941;28;20443;-81
2022/03/12 02:09:46;;;;;;;18.77;13.48;;;;;;;;;;5060124;28;20483;-84
2022/03/12 02:12:12;;;;;;;22.40;13.52;;;;;;;;;;5063672;28;20385;-82
2022/03/12 02:14:38;;;;;;;22.85;14.40;;;;;;;;;;5072677;28;20368;-80
2022/03/12 02:17:11;;;;;;;22.23;14.32;;;;;;;;;;5063586;28;20475;-83
2022/03/12 02:19:38;;;;;;;20.27;14.57;;;;;;;;;;5052438;28;20912;-82
2022/03/12 02:22:09;;;;;;;21.25;14.43;;;;;;;;;;5067125;28;20382;-84
2022/03/12 02:24:36;;;;;;;22.38;14.60;;;;;;;;;;5051187;28;20364;-82
2022/03/12 02:27:04;;;;;;;19.13;13.77;;;;;;;;;;5053982;28;20391;-82
2022/03/12 02:29:30;;;;;;;21.73;14.75;;;;;;;;;;5054741;28;20900;-81
2022/03/12 02:32:02;;;;;;;20.75;14.10;;;;;;;;;;5051931;28;20395;-81
2022/03/12 02:34:30;;;;;;;21.05;14.10;;;;;;;;;;5057654;28;20370;-82
2022/03/12 02:37:02;;;;;;;20.30;14.75;;;;;;;;;;5070336;28;20382;-82
2022/03/12 02:39:29;;;;;;;23.60;14.40;;;;;;;;;;5072930;28;20370;-82
2022/03/12 02:41:55;;;;;;;23.90;15.33;;;;;;;;;;5072241;28;20370;-84
2022/03/12 02:44:24;;;;;;;19.60;14.23;;;;;;;;;;5070514;28;20487;-82
2022/03/12 02:47:13;;;;;;;20.92;14.15;;;;;;;;;;5064253;28;20416;-82
2022/03/12 02:49:41;;;;;;;21.55;15.00;;;;;;;;;;5050411;28;20403;-80
2022/03/12 02:52:07;;;;;;;23.92;14.73;;;;;;;;;;5050113;28;20388;-82
2022/03/12 02:54:34;;;;;;;19.88;14.07;;;;;;;;;;5051428;28;20383;-81
2022/03/12 02:57:01;;;;;;;20.20;14.38;;;;;;;;;;5050158;28;20781;-81
2022/03/12 02:59:27;;;;;;;20.05;14.57;;;;;;;;;;5050662;28;20411;-82
2022/03/12 03:01:56;;;;;;;22.77;14.82;;;;;;;;;;5036340;28;20403;-82
2022/03/12 03:04:22;;;;;;;20.92;14.40;;;;;;;;;;5049791;28;20387;-83
2022/03/12 03:06:48;;;;;;;22.42;15.65;;;;;;;;;;5050231;28;20419;-83
2022/03/12 03:09:14;;;;;;;20.80;14.50;;;;;;;;;;5049906;28;20395;-82
2022/03/12 03:11:40;;;;;;;22.70;14.93;;;;;;;;;;5050202;28;20418;-83
2022/03/12 03:14:10;;;;;;;21.08;14.30;;;;;;;;;;5049980;28;20375;-83
2022/03/12 03:16:37;;;;;;;20.73;14.73;;;;;;;;;;5050245;28;20411;-81
2022/03/12 03:19:03;;;;;;;19.20;14.82;;;;;;;;;;5051640;28;20379;-81
2022/03/12 03:21:29;;;;;;;20.55;15.13;;;;;;;;;;5051078;28;20498;-83
2022/03/12 03:23:55;;;;;;;22.73;15.23;;;;;;;;;;5060928;28;20771;-81
2022/03/12 03:26:35;;;;;;;22.38;15.13;;;;;;;;;;5069810;28;20370;-82
2022/03/12 03:29:01;;;;;;;18.60;14.43;;;;;;;;;;5061079;28;20392;-83
2022/03/12 03:31:27;;;;;;;21.45;14.48;;;;;;;;;;5049240;28;20465;-81
2022/03/12 03:33:53;;;;;;;21.08;14.27;;;;;;;;;;5050904;28;20792;-81
2022/03/12 03:36:19;;;;;;;21.83;14.90;;;;;;;;;;5053438;28;20381;-82
2022/03/12 03:38:45;;;;;;;20.88;14.23;;;;;;;;;;5069792;28;20365;-81
2022/03/12 03:41:13;;;;;;;23.40;14.70;;;;;;;;;;5059813;28;20407;-82
2022/03/12 03:43:39;;;;;;;22.58;14.98;;;;;;;;;;5068991;28;20496;-83
2022/03/12 03:46:05;;;;;;;20.98;14.73;;;;;;;;;;5052845;28;20448;-83
2022/03/12 03:48:37;;;;;;;21.30;14.83;;;;;;;;;;5050831;28;20727;-81
2022/03/12 03:51:04;;;;;;;22.80;15.57;;;;;;;;;;5050059;28;20503;-82
2022/03/12 03:53:30;;;;;;;22.13;15.35;;;;;;;;;;5050084;28;20380;-83
2022/03/12 03:55:59;;;;;;;24.08;15.07;;;;;;;;;;5050375;28;20486;-82
2022/03/12 03:58:26;;;;;;;20.58;15.05;;;;;;;;;;5051142;28;20436;-82
2022/03/12 04:00:57;;;;;;;20.27;14.50;;;;;;;;;;5071564;28;20367;-82
2022/03/12 04:03:24;;;;;;;20.85;14.57;;;;;;;;;;5070252;28;20478;-82
2022/03/12 04:05:50;;;;;;;22.45;15.00;;;;;;;;;;5069204;28;20420;-81
2022/03/12 04:08:16;;;;;;;20.77;15.18;;;;;;;;;;5068425;28;20902;-81
2022/03/12 04:10:42;;;;;;;22.27;15.13;;;;;;;;;;5068985;28;20394;-80
2022/03/12 04:13:13;;;;;;;22.65;14.90;;;;;;;;;;5069118;28;20809;-81
2022/03/12 04:15:40;;;;;;;21.75;14.95;;;;;;;;;;5069180;28;20389;-82
2022/03/12 04:18:21;;;;;;;21.17;14.27;;;;;;;;;;5068290;28;20751;-81
2022/03/12 04:20:47;;;;;;;23.60;14.98;;;;;;;;;;5068523;28;20370;-83
2022/03/12 04:23:13;;;;;;;23.85;15.18;;;;;;;;;;5069072;28;20375;-82
2022/03/12 04:25:40;;;;;;;24.10;15.07;;;;;;;;;;5069797;28;20366;-81
2022/03/12 04:28:07;;;;;;;25.55;15.48;;;;;;;;;;5068394;28;20424;-82
2022/03/12 04:30:33;;;;;;;22.93;15.37;;;;;;;;;;5069729;28;20393;-82
2022/03/12 04:32:59;;;;;;;19.90;14.77;;;;;;;;;;5069526;28;20510;-82
2022/03/12 04:35:25;;;;;;;21.17;14.77;;;;;;;;;;5066546;28;20936;-82
2022/03/12 04:37:56;;;;;;;21.35;14.23;;;;;;;;;;5050419;28;20450;-84
2022/03/12 04:40:24;;;;;;;22.30;14.77;;;;;;;;;;5049473;28;20889;-80
2022/03/12 04:42:50;;;;;;;21.77;15.02;;;;;;;;;;5065939;28;20440;-82
2022/03/12 04:45:18;;;;;;;19.27;14.65;;;;;;;;;;5052374;28;20746;-83
2022/03/12 04:47:45;;;;;;;23.08;15.18;;;;;;;;;;5048831;28;20723;-82
2022/03/12 04:50:14;;;;;;;20.83;14.77;;;;;;;;;;5047922;28;20754;-81
2022/03/12 04:52:41;;;;;;;21.97;15.60;;;;;;;;;;5049985;28;20395;-83
2022/03/12 04:55:10;;;;;;;23.70;15.63;;;;;;;;;;5051440;28;20448;-81
2022/03/12 04:57:36;;;;;;;20.45;15.27;;;;;;;;;;5068217;28;20480;-80
2022/03/12 05:00:26;;;;;;;23.20;15.63;;;;;;;;;;5064780;28;20854;-81
2022/03/12 05:03:03;;;;;;;21.73;14.70;;;;;;;;;;5047418;28;20932;-82
2022/03/12 05:05:29;;;;;;;21.35;15.32;;;;;;;;;;5049659;28;20399;-82
2022/03/12 05:07:56;;;;;;;22.27;15.32;;;;;;;;;;5049217;28;20378;-81
2022/03/12 05:10:23;;;;;;;20.67;14.85;;;;;;;;;;5048933;28;20399;-82
2022/03/12 05:12:51;;;;;;;23.55;15.73;;;;;;;;;;5047043;28;23321;-82
2022/03/12 05:15:18;;;;;;;23.73;15.50;;;;;;;;;;5049372;28;20430;-81
2022/03/12 05:17:47;;;;;;;22.98;15.55;;;;;;;;;;5061887;28;20393;-82
2022/03/12 05:20:18;;;;;;;20.73;14.48;;;;;;;;;;5068883;28;20370;-82
2022/03/12 05:22:44;;;;;;;22.00;16.08;;;;;;;;;;5067733;28;20389;-81
2022/03/12 05:25:10;;;;;;;21.95;15.65;;;;;;;;;;5067217;28;20447;-83
2022/03/12 05:27:36;;;;;;;22.48;15.65;;;;;;;;;;5069295;28;20370;-81
2022/03/12 05:30:03;;;;;;;22.13;14.73;;;;;;;;;;5067572;28;20783;-81
2022/03/12 05:32:29;;;;;;;20.97;14.73;;;;;;;;;;5067254;28;20394;-82
2022/03/12 05:34:55;;;;;;;20.95;15.27;;;;;;;;;;5067336;28;20436;-81
2022/03/12 05:37:22;;;;;;;21.92;15.35;;;;;;;;;;5067378;28;20419;-81
2022/03/12 05:39:50;;;;;;;23.35;15.73;;;;;;;;;;5068816;28;20401;-81
2022/03/12 05:42:17;;;;;;;22.40;15.02;;;;;;;;;;5066993;28;20413;-82
2022/03/12 05:44:44;;;;;;;23.43;15.40;;;;;;;;;;5067015;28;20378;-83
2022/03/12 05:47:10;;;;;;;20.25;14.77;;;;;;;;;;5050815;28;20379;-81
2022/03/12 05:49:38;;;;;;;22.42;15.75;;;;;;;;;;5067150;28;20413;-82
2022/03/12 05:52:04;;;;;;;21.77;15.40;;;;;;;;;;5067227;28;20401;-83
2022/03/12 05:54:30;;;;;;;21.40;15.45;;;;;;;;;;5053726;28;21247;-82
2022/03/12 06:00:11;;;;;;;22.52;15.25;;;;;;;;;;5045421;28;20909;-82
2022/03/12 06:02:40;;;;;;;22.27;15.68;;;;;;;;;;5049206;28;20388;-81
2022/03/12 06:05:10;;;;;;;19.77;14.68;;;;;;;;;;5047266;28;20932;-81
2022/03/12 06:07:37;;;;;;;22.00;15.68;;;;;;;;;;5047358;28;20391;-82
2022/03/12 06:10:03;;;;;;;21.10;15.27;;;;;;;;;;5048043;28;20422;-82
2022/03/12 06:12:30;;;;;;;22.52;15.55;;;;;;;;;;5049274;28;20375;-81
2022/03/12 06:14:56;;;;;;;24.73;16.23;;;;;;;;;;5050719;28;20410;-82
2022/03/12 06:17:24;;;;;;;21.07;14.70;;;;;;;;;;5068136;28;20440;-81
2022/03/12 06:19:50;;;;;;;20.25;15.18;;;;;;;;;;5072326;28;20499;-83
2022/03/12 06:22:16;;;;;;;20.75;15.02;;;;;;;;;;5071761;28;20453;-83
2022/03/12 06:24:42;;;;;;;21.73;15.40;;;;;;;;;;5051239;28;20471;-82
2022/03/12 06:27:19;;;;;;;22.40;15.67;;;;;;;;;;5051464;28;20780;-82
2022/03/12 06:29:45;;;;;;;21.92;15.05;;;;;;;;;;5052916;28;20511;-83
2022/03/12 06:32:11;;;;;;;21.60;15.70;;;;;;;;;;5071735;28;20374;-82
2022/03/12 06:34:38;;;;;;;23.38;15.68;;;;;;;;;;5071444;28;20895;-82
2022/03/12 06:37:04;;;;;;;24.58;15.93;;;;;;;;;;5071322;28;20374;-84
2022/03/12 06:39:30;;;;;;;23.13;15.07;;;;;;;;;;5053593;28;20397;-82
2022/03/12 06:41:56;;;;;;;23.83;14.88;;;;;;;;;;5070550;28;20441;-82
2022/03/12 06:44:24;;;;;;;23.65;15.15;;;;;;;;;;5069965;28;20390;-82
2022/03/12 06:46:50;;;;;;;28.38;15.82;;;;;;;;;;5071685;28;20370;-81
2022/03/12 06:49:16;;;;;;;21.63;15.27;;;;;;;;;;5056391;28;20765;-81
2022/03/12 06:51:42;;;;;;;54.88;18.17;;;;;;;;;;5051276;28;20384;-80
2022/03/12 06:54:08;;;;;;;20.58;14.90;;;;;;;;;;5049442;28;20379;-84
2022/03/12 06:56:39;;;;;;;23.63;16.15;;;;;;;;;;5051588;28;20372;-81
2022/03/12 06:59:05;;;;;;;30.17;15.63;;;;;;;;;;5067222;28;20451;-83
2022/03/12 07:01:31;;;;;;;52.73;18.70;;;;;;;;;;5069967;28;20407;-82
2022/03/12 07:03:57;;;;;;;21.42;14.48;;;;;;;;;;5059015;28;20392;-82
2022/03/12 07:06:23;;;;;;;17.95;13.68;;;;;;;;;;5049914;28;20926;-82
2022/03/12 07:08:50;;;;;;;20.58;14.70;;;;;;;;;;5068321;28;20538;-82
2022/03/12 07:11:18;;;;;;;20.38;14.18;;;;;;;;;;5049328;28;20418;-82
2022/03/12 07:13:44;;;;;;;20.65;14.38;;;;;;;;;;5052366;28;20384;-83
2022/03/12 07:16:10;;;;;;;22.83;14.33;;;;;;;;;;5049097;28;20454;-83
2022/03/12 07:18:38;;;;;;;19.15;13.50;;;;;;;;;;5048776;28;20399;-82
2022/03/12 07:21:04;;;;;;;19.05;13.15;;;;;;;;;;5051451;28;20376;-83
2022/03/12 07:23:30;;;;;;;21.00;13.80;;;;;;;;;;5050546;28;20457;-81
2022/03/12 07:25:57;;;;;;;19.02;13.77;;;;;;;;;;5049773;28;20384;-85
2022/03/12 07:28:24;;;;;;;19.95;13.00;;;;;;;;;;5051214;28;20384;-82
2022/03/12 07:30:51;;;;;;;19.20;13.25;;;;;;;;;;5050345;28;20780;-83
2022/03/12 07:33:17;;;;;;;17.52;13.07;;;;;;;;;;5050356;28;20881;-83
2022/03/12 07:35:43;;;;;;;17.95;12.50;;;;;;;;;;5051598;28;20467;-83
2022/03/12 07:38:09;;;;;;;20.25;12.70;;;;;;;;;;5056025;28;20378;-82
2022/03/12 07:40:36;;;;;;;19.55;12.02;;;;;;;;;;5071677;28;20381;-82
2022/03/12 07:43:03;;;;;;;16.70;12.10;;;;;;;;;;5075950;28;20370;-83
2022/03/12 07:45:29;;;;;;;17.80;11.88;;;;;;;;;;5052653;28;20383;-83
2022/03/12 07:47:56;;;;;;;23.52;12.57;;;;;;;;;;5051181;28;20380;-81
2022/03/12 07:50:22;;;;;;;18.80;12.45;;;;;;;;;;5050237;28;20430;-82
2022/03/12 07:52:49;;;;;;;17.58;11.90;;;;;;;;;;5072422;28;20457;-83
2022/03/12 07:55:17;;;;;;;19.90;11.63;;;;;;;;;;5066712;28;20407;-83
2022/03/12 07:57:43;;;;;;;18.57;11.43;;;;;;;;;;5051027;28;20505;-83
2022/03/12 08:00:11;;;;;;;19.50;11.90;;;;;;;;;;5051588;28;20394;-82
2022/03/12 08:02:40;;;;;;;22.00;11.45;;;;;;;;;;5052243;28;20364;-83
2022/03/12 08:05:06;;;;;;;17.02;10.82;;;;;;;;;;5052328;28;20420;-82
2022/03/12 08:07:33;;;;;;;16.47;11.30;;;;;;;;;;5070534;28;20424;-82
2022/03/12 08:09:59;;;;;;;18.98;11.40;;;;;;;;;;5069885;28;20741;-82
2022/03/12 08:12:32;;;;;;;17.08;10.90;;;;;;;;;;5070221;28;20941;-82
2022/03/12 08:14:59;;;;;;;16.00;10.90;;;;;;;;;;5070853;28;20374;-84
2022/03/12 08:17:25;;;;;;;18.48;11.48;;;;;;;;;;5056573;28;20414;-83
2022/03/12 08:19:54;;;;;;;15.60;10.70;;;;;;;;;;5070447;28;20474;-83
2022/03/12 08:22:20;;;;;;;24.98;11.43;;;;;;;;;;5070837;28;20457;-83
2022/03/12 08:24:47;;;;;;;17.58;11.43;;;;;;;;;;5052058;28;20386;-82
2022/03/12 08:27:14;;;;;;;18.40;11.13;;;;;;;;;;5068464;28;20366;-83
2022/03/12 08:29:41;;;;;;;15.55;10.65;;;;;;;;;;5069496;28;20409;-83
2022/03/12 08:32:08;;;;;;;14.23;10.50;;;;;;;;;;5070428;28;20370;-83
2022/03/12 08:34:35;;;;;;;15.48;10.65;;;;;;;;;;5069166;28;20424;-84
2022/03/12 08:37:03;;;;;;;22.75;10.85;;;;;;;;;;5068045;28;20774;-83
2022/03/12 08:39:29;;;;;;;20.45;10.25;;;;;;;;;;5066581;28;20414;-83
2022/03/12 08:41:55;;;;;;;16.47;10.10;;;;;;;;;;5050374;28;20999;-82
2022/03/12 08:44:21;;;;;;;14.73;9.60;;;;;;;;;;5050217;28;20371;-80
2022/03/12 08:46:48;;;;;;;17.92;10.45;;;;;;;;;;5049848;28;20443;-82
2022/03/12 08:49:14;;;;;;;12.55;9.43;;;;;;;;;;5047715;28;20384;-82
2022/03/12 08:51:41;;;;;;;18.45;10.07;;;;;;;;;;5052548;28;20367;-82
2022/03/12 08:54:08;;;;;;;15.05;9.98;;;;;;;;;;5055166;28;20947;-81
2022/03/12 08:56:34;;;;;;;18.30;9.50;;;;;;;;;;5068977;28;20367;-83
2022/03/12 08:59:00;;;;;;;16.38;9.77;;;;;;;;;;5070265;28;20418;-81
2022/03/12 09:01:28;;;;;;;16.17;9.68;;;;;;;;;;5069509;28;20457;-82
2022/03/12 09:03:54;;;;;;;14.57;10.02;;;;;;;;;;5068106;28;20394;-83
2022/03/12 09:06:20;;;;;;;14.27;9.73;;;;;;;;;;5069321;28;20370;-83
2022/03/12 09:08:47;;;;;;;13.02;10.05;;;;;;;;;;5061865;28;20396;-82
2022/03/12 09:11:17;;;;;;;13.50;9.90;;;;;;;;;;5049852;28;20453;-83
2022/03/12 09:13:43;;;;;;;26.88;10.77;;;;;;;;;;5057667;28;20970;-81
2022/03/12 09:16:09;;;;;;;19.33;9.73;;;;;;;;;;5071474;28;20374;-83
2022/03/12 09:18:35;;;;;;;17.13;9.60;;;;;;;;;;5062695;28;20387;-84
2022/03/12 09:21:01;;;;;;;65.00;13.88;;;;;;;;;;5067441;28;20483;-83
2022/03/12 09:23:27;;;;;;;13.93;9.23;;;;;;;;;;5052802;28;20534;-82
2022/03/12 09:25:54;;;;;;;15.55;9.57;;;;;;;;;;5049590;28;20391;-82
2022/03/12 09:28:20;;;;;;;17.50;9.45;;;;;;;;;;5049214;28;20393;-83
2022/03/12 09:30:50;;;;;;;13.18;8.55;;;;;;;;;;5051432;28;20546;-82
2022/03/12 09:33:17;;;;;;;11.82;8.60;;;;;;;;;;5048645;28;20453;-83
2022/03/12 09:35:43;;;;;;;14.40;8.75;;;;;;;;;;5049986;28;20930;-82
2022/03/12 09:38:10;;;;;;;15.65;9.27;;;;;;;;;;5059132;28;20396;-82
2022/03/12 09:40:36;;;;;;;13.13;8.77;;;;;;;;;;5064632;28;20454;-83
2022/03/12 09:43:03;;;;;;;13.13;8.45;;;;;;;;;;5068955;28;20378;-83
2022/03/12 09:45:30;;;;;;;10.20;8.10;;;;;;;;;;5068423;28;20369;-82
2022/03/12 09:47:56;;;;;;;12.35;8.73;;;;;;;;;;5070360;28;20388;-82
2022/03/12 09:50:23;;;;;;;16.10;8.73;;;;;;;;;;5073228;28;20500;-84
2022/03/12 09:52:49;;;;;;;16.50;9.05;;;;;;;;;;5053629;28;20477;-82
2022/03/12 09:55:16;;;;;;;12.85;8.50;;;;;;;;;;5069384;28;20387;-82
2022/03/12 09:57:44;;;;;;;14.18;9.02;;;;;;;;;;5059046;28;20390;-83
2022/03/12 10:00:11;;;;;;;11.98;8.48;;;;;;;;;;5070885;28;20370;-82
2022/03/12 10:02:37;;;;;;;15.30;8.85;;;;;;;;;;5068560;28;20436;-83
2022/03/12 10:05:03;;;;;;;37.80;10.40;;;;;;;;;;5069025;28;20385;-83
2022/03/12 10:07:31;;;;;;;15.20;8.35;;;;;;;;;;5053680;28;20415;-82
2022/03/12 10:09:57;;;;;;;12.63;8.77;;;;;;;;;;5051372;28;20419;-82
2022/03/12 10:12:23;;;;;;;15.50;8.65;;;;;;;;;;5063769;28;20405;-83
2022/03/12 10:14:49;;;;;;;15.07;8.23;;;;;;;;;;5068330;28;20513;-82
2022/03/12 10:17:20;;;;;;;13.30;8.60;;;;;;;;;;5060889;28;20972;-84
2022/03/12 10:19:46;;;;;;;11.68;7.97;;;;;;;;;;5070493;28;20396;-84
2022/03/12 10:22:14;;;;;;;10.73;8.00;;;;;;;;;;5083538;28;20843;-82
2022/03/12 10:24:41;;;;;;;12.15;8.15;;;;;;;;;;5072390;28;21017;-83
2022/03/12 10:27:07;;;;;;;12.85;8.82;;;;;;;;;;5072358;28;20404;-82
2022/03/12 10:29:34;;;;;;;10.25;7.85;;;;;;;;;;5072068;28;20405;-82
2022/03/12 10:32:21;;;;;;;10.07;8.07;;;;;;;;;;5071341;28;20918;-82
2022/03/12 10:34:52;;;;;;;11.18;8.60;;;;;;;;;;5070120;28;20890;-83
2022/03/12 10:37:19;;;;;;;10.60;7.70;;;;;;;;;;5060515;28;20393;-83
2022/03/12 10:39:46;;;;;;;10.38;7.55;;;;;;;;;;5059685;28;20367;-83
2022/03/12 10:42:13;;;;;;;11.40;7.07;;;;;;;;;;5066820;28;20374;-82
2022/03/12 10:44:41;;;;;;;18.65;9.05;;;;;;;;;;5062101;28;20371;-83
2022/03/12 10:47:23;;;;;;;14.68;8.38;;;;;;;;;;5063014;28;20413;-83
2022/03/12 10:50:05;;;;;;;12.30;7.85;;;;;;;;;;5067201;28;20395;-83
2022/03/12 10:52:32;;;;;;;11.02;8.18;;;;;;;;;;5063311;28;20390;-84
2022/03/12 10:54:58;;;;;;;10.40;7.22;;;;;;;;;;5060944;28;20374;-83
2022/03/12 10:57:25;;;;;;;13.85;7.68;;;;;;;;;;5060504;28;20396;-83
2022/03/12 10:59:54;;;;;;;9.13;6.88;;;;;;;;;;5061997;28;20382;-83
2022/03/12 11:02:20;;;;;;;11.63;7.10;;;;;;;;;;5053173;28;20734;-82
2022/03/12 11:04:46;;;;;;;14.15;7.15;;;;;;;;;;5051434;28;20395;-85
2022/03/12 11:07:26;;;;;;;10.13;7.15;;;;;;;;;;5050702;28;20396;-83
2022/03/12 11:09:53;;;;;;;9.13;6.37;;;;;;;;;;5050861;28;20509;-83
2022/03/12 11:12:31;;;;;;;12.35;6.82;;;;;;;;;;5052303;28;20407;-83
2022/03/12 11:15:11;;;;;;;10.73;7.00;;;;;;;;;;5049802;28;20384;-82
2022/03/12 11:17:44;;;;;;;10.45;6.97;;;;;;;;;;5052107;28;20417;-83
2022/03/12 11:20:22;;;;;;;9.77;7.00;;;;;;;;;;5049520;28;20920;-83
2022/03/12 11:23:06;;;;;;;11.32;7.68;;;;;;;;;;5064187;28;20405;-84
2022/03/12 11:25:32;;;;;;;19.92;7.80;;;;;;;;;;5057096;28;20388;-82
2022/03/12 11:28:00;;;;;;;17.23;7.45;;;;;;;;;;5051862;28;20857;-85
2022/03/12 11:30:30;;;;;;;12.20;6.60;;;;;;;;;;5051490;28;20443;-83
2022/03/12 11:33:06;;;;;;;14.30;7.05;;;;;;;;;;5052012;28;20375;-84
2022/03/12 11:35:36;;;;;;;10.73;5.95;;;;;;;;;;5050001;28;20726;-83
2022/03/12 11:38:22;;;;;;;8.48;5.55;;;;;;;;;;5050589;28;20383;-81
2022/03/12 11:41:11;;;;;;;11.13;5.75;;;;;;;;;;5066032;28;20466;-83
2022/03/12 11:43:40;;;;;;;14.50;6.65;;;;;;;;;;5057067;28;20375;-83
2022/03/12 11:46:07;;;;;;;8.98;6.18;;;;;;;;;;5072037;28;20378;-82
2022/03/12 11:48:34;;;;;;;11.50;6.13;;;;;;;;;;5054011;28;20915;-82
2022/03/12 11:51:01;;;;;;;6.65;5.85;;;;;;;;;;5068873;28;20401;-82
2022/03/12 11:53:27;;;;;;;11.43;6.80;;;;;;;;;;5070460;28;20440;-83
2022/03/12 11:55:54;;;;;;;12.43;6.65;;;;;;;;;;5068262;28;20383;-81
2022/03/12 11:58:20;;;;;;;9.05;5.88;;;;;;;;;;5050133;28;20383;-82
2022/03/12 12:00:47;;;;;;;6.75;5.40;;;;;;;;;;5050541;28;20376;-83
2022/03/12 12:03:14;;;;;;;7.40;5.60;;;;;;;;;;5060322;28;20378;-82
2022/03/12 12:05:46;;;;;;;8.10;6.20;;;;;;;;;;5070362;28;20925;-82
2022/03/12 12:08:12;;;;;;;7.20;5.78;;;;;;;;;;5069908;28;20399;-83
2022/03/12 12:10:41;;;;;;;9.90;6.25;;;;;;;;;;5068816;28;20965;-83
2022/03/12 12:13:07;;;;;;;8.90;5.80;;;;;;;;;;5069583;28;20461;-83
2022/03/12 12:15:38;;;;;;;8.38;6.05;;;;;;;;;;5059263;28;20393;-83
2022/03/12 12:18:04;;;;;;;8.88;5.93;;;;;;;;;;5050091;28;20388;-83
2022/03/12 12:20:31;;;;;;;11.38;6.60;;;;;;;;;;5051047;28;20372;-83
2022/03/12 12:22:58;;;;;;;16.20;7.87;;;;;;;;;;5050671;28;20475;-83
2022/03/12 12:25:25;;;;;;;10.65;8.23;;;;;;;;;;5051118;28;20426;-83
2022/03/12 12:27:52;;;;;;;15.57;10.45;;;;;;;;;;5050184;28;20391;-84
2022/03/12 12:30:28;;;;;;;13.23;9.23;;;;;;;;;;5049661;28;20408;-82
2022/03/12 12:32:54;;;;;;;15.27;8.53;;;;;;;;;;5050467;28;20406;-83
2022/03/12 12:35:22;;;;;;;19.30;9.38;;;;;;;;;;5050447;28;20368;-83
2022/03/12 12:37:51;;;;;;;14.73;9.60;;;;;;;;;;5049113;28;20380;-84
2022/03/12 12:40:18;;;;;;;20.20;9.35;;;;;;;;;;5066675;28;20386;-83
2022/03/12 12:42:45;;;;;;;13.65;8.93;;;;;;;;;;5066334;28;20426;-84
2022/03/12 12:45:12;;;;;;;12.35;7.78;;;;;;;;;;5061130;28;20372;-84
2022/03/12 12:47:38;;;;;;;14.85;8.00;;;;;;;;;;5066034;28;20382;-83
2022/03/12 12:50:05;;;;;;;16.15;7.85;;;;;;;;;;5071848;28;20410;-83
2022/03/12 12:52:32;;;;;;;33.45;9.25;;;;;;;;;;5071244;28;20869;-85
2022/03/12 12:55:00;;;;;;;11.95;7.45;;;;;;;;;;5070279;28;20435;-84
2022/03/12 12:57:47;;;;;;;14.23;7.68;;;;;;;;;;5071569;28;20374;-83
2022/03/12 13:00:32;;;;;;;54.30;11.35;;;;;;;;;;5068888;28;20389;-85
2022/03/12 13:02:59;;;;;;;10.90;7.18;;;;;;;;;;5069497;28;20386;-84
2022/03/12 13:06:02;;;;;;;12.35;7.13;;;;;;;;;;5068696;28;20373;-84
2022/03/12 13:08:47;;;;;;;12.95;7.35;;;;;;;;;;5053245;28;20390;-83
2022/03/12 13:11:29;;;;;;;16.30;7.13;;;;;;;;;;5069712;28;20484;-84
2022/03/12 13:13:56;;;;;;;11.07;6.60;;;;;;;;;;5073079;28;20381;-83
2022/03/12 13:16:23;;;;;;;10.50;6.60;;;;;;;;;;5073303;28;20370;-82
2022/03/12 13:18:51;;;;;;;8.27;6.22;;;;;;;;;;5072446;28;20374;-83
2022/03/12 13:21:34;;;;;;;9.35;5.65;;;;;;;;;;5070570;28;20401;-84
2022/03/12 13:24:00;;;;;;;16.15;6.43;;;;;;;;;;5068192;28;20416;-84
2022/03/12 13:26:27;;;;;;;23.83;7.03;;;;;;;;;;5070300;28;20421;-82
2022/03/12 13:28:54;;;;;;;7.70;5.10;;;;;;;;;;5075336;28;20400;-84
2022/03/12 13:31:28;;;;;;;8.30;5.55;;;;;;;;;;5079802;28;20394;-84
2022/03/12 13:34:05;;;;;;;8.77;4.90;;;;;;;;;;5069288;28;20386;-84
2022/03/12 13:36:33;;;;;;;7.70;5.20;;;;;;;;;;5086178;28;20450;-83
2022/03/12 13:39:02;;;;;;;9.10;5.43;;;;;;;;;;5074990;28;20438;-82
2022/03/12 13:41:29;;;;;;;10.40;5.47;;;;;;;;;;5078419;28;20385;-83
2022/03/12 13:43:57;;;;;;;8.77;5.28;;;;;;;;;;5083299;28;20410;-84
2022/03/12 13:46:24;;;;;;;8.45;5.68;;;;;;;;;;5072977;28;20461;-83
2022/03/12 13:49:00;;;;;;;8.90;5.65;;;;;;;;;;5082769;28;20726;-83
2022/03/12 13:51:29;;;;;;;8.75;5.68;;;;;;;;;;5070912;28;20415;-84
2022/03/12 13:53:59;;;;;;;7.35;5.05;;;;;;;;;;5062631;28;20392;-84
2022/03/12 13:56:28;;;;;;;7.80;5.43;;;;;;;;;;5065635;28;20433;-83
2022/03/12 13:59:03;;;;;;;10.25;5.35;;;;;;;;;;5063486;28;20387;-83
2022/03/12 14:01:30;;;;;;;14.75;5.72;;;;;;;;;;5064170;28;20479;-82
2022/03/12 14:03:57;;;;;;;25.48;7.20;;;;;;;;;;5063695;28;20463;-83
2022/03/12 14:06:30;;;;;;;35.25;8.27;;;;;;;;;;5059456;28;20438;-82
2022/03/12 14:08:57;;;;;;;8.87;5.33;;;;;;;;;;5058195;28;20601;-82
2022/03/12 14:11:30;;;;;;;7.50;4.88;;;;;;;;;;5063321;28;20834;-83
2022/03/12 14:14:02;;;;;;;12.80;5.82;;;;;;;;;;5059274;28;20379;-83
2022/03/12 14:16:35;;;;;;;7.70;4.75;;;;;;;;;;5055514;28;20890;-83
2022/03/12 14:19:01;;;;;;;5.93;4.85;;;;;;;;;;5062492;28;20394;-83
2022/03/12 14:21:37;;;;;;;8.15;5.22;;;;;;;;;;5049266;28;20372;-83
2022/03/12 14:24:12;;;;;;;9.00;5.28;;;;;;;;;;5068650;28;20752;-83
2022/03/12 14:26:45;;;;;;;7.95;5.00;;;;;;;;;;5068928;28;20386;-83
2022/03/12 14:29:11;;;;;;;6.25;4.75;;;;;;;;;;5067585;28;20362;-83
2022/03/12 14:31:37;;;;;;;8.73;4.57;;;;;;;;;;5062783;28;20415;-82
2022/03/12 14:34:05;;;;;;;12.00;5.28;;;;;;;;;;5059485;28;20390;-84